createdAt,value
2016-11-03T00:00:57.951Z,77.36
2016-11-03T00:01:57.961Z,77.07
2016-11-03T00:02:57.975Z,77.26
2016-11-03T00:03:58.000Z,77.17
2016-11-03T00:04:58.002Z,77.26
2016-11-03T00:05:58.025Z,77.07
2016-11-03T00:06:58.044Z,77.07
2016-11-03T00:07:58.049Z,76.88
2016-11-03T00:08:58.065Z,76.88
2016-11-03T00:09:58.080Z,76.88
2016-11-03T00:10:58.098Z,76.97
2016-11-03T00:11:58.117Z,76.88
2016-11-03T00:12:58.134Z,76.88
2016-11-03T00:13:58.136Z,76.88
2016-11-03T00:14:58.156Z,77.07
2016-11-03T00:15:58.483Z,77.07
2016-11-03T00:16:58.207Z,77.45
2016-11-03T00:17:58.197Z,77.36
2016-11-03T00:18:58.220Z,77.36
2016-11-03T00:19:58.230Z,77.36
2016-11-03T00:20:58.242Z,77.36
2016-11-03T00:21:58.261Z,77.17
2016-11-03T00:22:58.274Z,77.36
2016-11-03T00:23:58.290Z,77.07
2016-11-03T00:24:58.308Z,77.36
2016-11-03T00:25:58.355Z,77.17
2016-11-03T00:26:58.328Z,77.17
2016-11-03T00:27:58.340Z,77.55
2016-11-03T00:28:58.365Z,77.17
2016-11-03T00:29:58.488Z,77.36
2016-11-03T00:30:58.390Z,77.07
2016-11-03T00:31:58.402Z,77.36
2016-11-03T00:32:58.541Z,77.83
2016-11-03T00:33:58.432Z,77.36
2016-11-03T00:34:58.453Z,76.97
2016-11-03T00:35:58.469Z,77.83
2016-11-03T00:36:58.474Z,77.92
2016-11-03T00:37:58.490Z,77.73
2016-11-03T00:38:58.503Z,77.36
2016-11-03T00:39:58.520Z,77.36
2016-11-03T00:40:58.542Z,77.26
2016-11-03T00:41:58.548Z,77.64
2016-11-03T00:42:58.565Z,77.73
2016-11-03T00:43:58.582Z,77.36
2016-11-03T00:44:58.591Z,77.17
2016-11-03T00:45:58.614Z,77.17
2016-11-03T00:46:58.630Z,77.73
2016-11-03T00:47:58.636Z,77.36
2016-11-03T00:48:58.645Z,77.73
2016-11-03T00:49:58.663Z,77.36
2016-11-03T00:50:58.678Z,77.36
2016-11-03T00:51:58.700Z,77.73
2016-11-03T00:52:58.717Z,77.73
2016-11-03T00:53:58.730Z,77.64
2016-11-03T00:54:58.739Z,77.36
2016-11-03T00:55:58.751Z,77.83
2016-11-03T00:56:58.767Z,77.73
2016-11-03T00:57:58.910Z,76.88
2016-11-03T00:58:58.790Z,77.73
2016-11-03T00:59:58.811Z,77.36
2016-11-03T01:00:58.833Z,77.26
2016-11-03T01:01:58.842Z,77.36
2016-11-03T01:02:58.853Z,77.26
2016-11-03T01:03:58.875Z,77.26
2016-11-03T01:04:58.892Z,77.36
2016-11-03T01:05:58.891Z,77.36
2016-11-03T01:06:58.925Z,77.45
2016-11-03T01:07:58.927Z,77.36
2016-11-03T01:08:58.939Z,77.83
2016-11-03T01:09:58.964Z,77.92
2016-11-03T01:10:58.970Z,77.64
2016-11-03T01:11:58.991Z,77.83
2016-11-03T01:12:58.993Z,77.26
2016-11-03T01:13:59.049Z,77.55
2016-11-03T01:14:59.031Z,78.02
2016-11-03T01:15:59.034Z,77.07
2016-11-03T01:16:59.049Z,77.36
2016-11-03T01:17:59.079Z,77.55
2016-11-03T01:18:59.085Z,77.45
2016-11-03T01:19:59.099Z,77.55
2016-11-03T01:20:59.111Z,77.36
2016-11-03T01:21:59.139Z,77.36
2016-11-03T01:22:59.145Z,78.02
2016-11-03T01:23:59.149Z,77.98
2016-11-03T01:24:59.166Z,78.02
2016-11-03T01:25:59.185Z,77.98
2016-11-03T01:26:59.199Z,77.98
2016-11-03T01:27:59.205Z,77.83
2016-11-03T01:28:59.230Z,77.7
2016-11-03T01:29:59.246Z,77.98
2016-11-03T01:30:59.259Z,77.89
2016-11-03T01:31:59.272Z,77.41
2016-11-03T01:32:59.284Z,77.79
2016-11-03T01:33:59.294Z,77.73
2016-11-03T01:34:59.316Z,77.89
2016-11-03T01:35:59.327Z,77.79
2016-11-03T01:36:59.342Z,77.7
2016-11-03T01:37:59.352Z,77.98
2016-11-03T01:38:59.372Z,77.89
2016-11-03T01:39:59.385Z,77.7
2016-11-03T01:40:59.401Z,77.7
2016-11-03T01:41:59.413Z,77.89
2016-11-03T01:42:59.428Z,77.79
2016-11-03T01:43:59.434Z,77.7
2016-11-03T01:44:59.450Z,77.98
2016-11-03T01:45:59.464Z,77.7
2016-11-03T01:46:59.482Z,77.89
2016-11-03T01:47:59.501Z,77.98
2016-11-03T01:48:59.511Z,77.7
2016-11-03T01:49:59.520Z,77.98
2016-11-03T01:50:59.540Z,77.79
2016-11-03T01:51:59.550Z,77.98
2016-11-03T01:52:59.566Z,77.41
2016-11-03T01:53:59.582Z,77.7
2016-11-03T01:54:59.593Z,77.6
2016-11-03T01:55:59.615Z,77.98
2016-11-03T01:56:59.628Z,77.89
2016-11-03T01:57:59.642Z,77.89
2016-11-03T01:58:59.656Z,77.98
2016-11-03T01:59:59.675Z,77.89
2016-11-03T02:00:59.681Z,77.98
2016-11-03T02:01:59.717Z,77.98
2016-11-03T02:02:59.716Z,78.17
2016-11-03T02:03:59.732Z,78.08
2016-11-03T02:04:59.788Z,78.17
2016-11-03T02:05:59.787Z,78.08
2016-11-03T02:06:59.763Z,78.08
2016-11-03T02:07:59.794Z,78.17
2016-11-03T02:08:59.792Z,77.89
2016-11-03T02:09:59.809Z,78.08
2016-11-03T02:10:59.824Z,78.45
2016-11-03T02:11:59.832Z,78.17
2016-11-03T02:12:59.884Z,78.08
2016-11-03T02:13:59.864Z,77.98
2016-11-03T02:14:59.878Z,78.17
2016-11-03T02:15:59.888Z,78.08
2016-11-03T02:16:59.914Z,77.98
2016-11-03T02:17:59.923Z,77.98
2016-11-03T02:18:59.974Z,78.17
2016-11-03T02:19:59.950Z,78.17
2016-11-03T02:20:59.960Z,77.98
2016-11-03T02:21:59.975Z,78.17
2016-11-03T02:22:59.994Z,78.27
2016-11-03T02:24:00.010Z,77.98
2016-11-03T02:25:00.016Z,78.17
2016-11-03T02:26:00.028Z,78.08
2016-11-03T02:27:00.047Z,77.89
2016-11-03T02:28:00.056Z,78.17
2016-11-03T02:29:00.070Z,77.79
2016-11-03T02:30:00.088Z,78.17
2016-11-03T02:31:00.112Z,77.89
2016-11-03T02:32:00.110Z,78.17
2016-11-03T02:33:00.133Z,78.27
2016-11-03T02:34:00.139Z,78.17
2016-11-03T02:35:00.169Z,78.17
2016-11-03T02:36:00.173Z,78.08
2016-11-03T02:37:00.182Z,78.17
2016-11-03T02:38:00.208Z,77.89
2016-11-03T02:39:00.216Z,78.36
2016-11-03T02:40:00.231Z,78.55
2016-11-03T02:41:00.240Z,78.36
2016-11-03T02:42:00.258Z,78.55
2016-11-03T02:43:00.273Z,78.45
2016-11-03T02:44:00.290Z,78.45
2016-11-03T02:45:00.297Z,78.17
2016-11-03T02:46:00.317Z,78.27
2016-11-03T02:47:00.324Z,78.08
2016-11-03T02:48:00.345Z,78.36
2016-11-03T02:49:00.366Z,78.27
2016-11-03T02:50:00.368Z,78.27
2016-11-03T02:51:00.377Z,78.55
2016-11-03T02:52:00.389Z,78.36
2016-11-03T02:53:00.407Z,78.27
2016-11-03T02:54:00.426Z,78.17
2016-11-03T02:55:00.441Z,78.17
2016-11-03T02:56:00.454Z,78.36
2016-11-03T02:57:00.465Z,78.27
2016-11-03T02:58:00.483Z,78.45
2016-11-03T02:59:00.603Z,78.36
2016-11-03T03:00:00.622Z,78.27
2016-11-03T03:01:00.630Z,78.17
2016-11-03T03:02:00.537Z,77.98
2016-11-03T03:03:00.669Z,78.17
2016-11-03T03:04:00.685Z,78.27
2016-11-03T03:05:00.687Z,78.27
2016-11-03T03:06:00.696Z,78.27
2016-11-03T03:07:00.705Z,78.17
2016-11-03T03:08:00.626Z,78.17
2016-11-03T03:09:00.636Z,78.55
2016-11-03T03:10:00.654Z,78.55
2016-11-03T03:11:00.659Z,78.83
2016-11-03T03:12:00.796Z,78.83
2016-11-03T03:13:00.799Z,78.83
2016-11-03T03:14:00.813Z,78.74
2016-11-03T03:15:00.813Z,78.83
2016-11-03T03:16:00.831Z,78.55
2016-11-03T03:17:00.832Z,78.83
2016-11-03T03:18:00.857Z,78.55
2016-11-03T03:19:00.862Z,78.27
2016-11-03T03:20:00.885Z,78.17
2016-11-03T03:21:00.896Z,78.17
2016-11-03T03:22:00.902Z,78.83
2016-11-03T03:23:00.903Z,78.55
2016-11-03T03:24:00.936Z,78.17
2016-11-03T03:25:00.921Z,78.83
2016-11-03T03:26:00.952Z,78.55
2016-11-03T03:27:00.954Z,78.55
2016-11-03T03:28:00.964Z,78.08
2016-11-03T03:29:00.974Z,78.51
2016-11-03T03:30:00.982Z,78.45
2016-11-03T03:31:00.987Z,78.55
2016-11-03T03:32:00.999Z,78.45
2016-11-03T03:33:00.958Z,78.55
2016-11-03T03:34:00.987Z,78.55
2016-11-03T03:35:00.993Z,78.32
2016-11-03T03:36:01.008Z,78.27
2016-11-03T03:37:01.018Z,78.51
2016-11-03T03:38:01.029Z,78.51
2016-11-03T03:39:01.045Z,78.23
2016-11-03T03:40:01.070Z,78.45
2016-11-03T03:41:01.071Z,78.55
2016-11-03T03:42:01.084Z,78.64
2016-11-03T03:43:01.102Z,78.61
2016-11-03T03:44:01.122Z,78.8
2016-11-03T03:45:01.129Z,78.83
2016-11-03T03:46:01.142Z,78.55
2016-11-03T03:47:01.149Z,78.23
2016-11-03T03:48:01.179Z,78.7
2016-11-03T03:49:01.189Z,78.03
2016-11-03T03:50:01.197Z,78.64
2016-11-03T03:51:01.211Z,78.8
2016-11-03T03:52:01.220Z,79.08
2016-11-03T03:53:01.242Z,78.7
2016-11-03T03:54:01.253Z,78.8
2016-11-03T03:55:01.268Z,78.23
2016-11-03T03:56:01.289Z,78.51
2016-11-03T03:57:01.293Z,78.99
2016-11-03T03:58:01.306Z,78.45
2016-11-03T03:59:01.324Z,78.89
2016-11-03T04:00:01.337Z,78.13
2016-11-03T04:01:01.348Z,78.7
2016-11-03T04:02:01.357Z,78.8
2016-11-03T04:03:01.372Z,79.08
2016-11-03T04:04:01.408Z,78.89
2016-11-03T04:05:01.394Z,78.8
2016-11-03T04:06:01.416Z,78.7
2016-11-03T04:07:01.430Z,78.61
2016-11-03T04:08:01.443Z,78.7
2016-11-03T04:09:01.450Z,78.7
2016-11-03T04:10:01.472Z,78.7
2016-11-03T04:11:01.483Z,78.8
2016-11-03T04:12:01.493Z,78.8
2016-11-03T04:13:01.511Z,78.89
2016-11-03T04:14:01.522Z,78.89
2016-11-03T04:15:01.535Z,78.8
2016-11-03T04:16:01.549Z,78.8
2016-11-03T04:17:01.569Z,78.99
2016-11-03T04:18:01.576Z,78.8
2016-11-03T04:19:01.597Z,78.8
2016-11-03T04:20:01.605Z,79.36
2016-11-03T04:21:01.623Z,78.89
2016-11-03T04:22:01.635Z,78.8
2016-11-03T04:23:01.644Z,78.8
2016-11-03T04:24:01.666Z,78.89
2016-11-03T04:25:01.710Z,78.61
2016-11-03T04:26:01.686Z,78.89
2016-11-03T04:27:01.699Z,79.08
2016-11-03T04:28:01.706Z,78.99
2016-11-03T04:29:01.724Z,78.99
2016-11-03T04:30:01.741Z,78.99
2016-11-03T04:31:01.752Z,79.08
2016-11-03T04:32:01.767Z,78.99
2016-11-03T04:33:01.787Z,78.89
2016-11-03T04:34:01.796Z,78.89
2016-11-03T04:35:01.801Z,79.27
2016-11-03T04:36:01.826Z,78.7
2016-11-03T04:37:01.829Z,79.08
2016-11-03T04:38:01.849Z,78.99
2016-11-03T04:39:01.863Z,79.27
2016-11-03T04:40:01.875Z,79.08
2016-11-03T04:41:01.887Z,78.8
2016-11-03T04:42:01.908Z,78.99
2016-11-03T04:43:01.910Z,78.8
2016-11-03T04:44:01.962Z,78.7
2016-11-03T04:45:02.050Z,78.99
2016-11-03T04:46:01.960Z,78.7
2016-11-03T04:47:01.971Z,78.51
2016-11-03T04:48:01.985Z,78.61
2016-11-03T04:49:01.996Z,78.7
2016-11-03T04:50:02.017Z,79.08
2016-11-03T04:51:02.140Z,78.7
2016-11-03T04:52:02.035Z,78.7
2016-11-03T04:53:02.048Z,78.8
2016-11-03T04:54:02.072Z,78.99
2016-11-03T04:55:02.081Z,78.89
2016-11-03T04:56:02.091Z,79.27
2016-11-03T04:57:02.110Z,79.46
2016-11-03T04:58:02.195Z,79.36
2016-11-03T04:59:02.131Z,78.89
2016-11-03T05:00:02.153Z,79.08
2016-11-03T05:01:02.161Z,79.46
2016-11-03T05:02:02.174Z,79.17
2016-11-03T05:03:02.186Z,78.8
2016-11-03T05:04:02.210Z,78.7
2016-11-03T05:05:02.212Z,78.8
2016-11-03T05:06:02.223Z,78.8
2016-11-03T05:07:02.240Z,78.89
2016-11-03T05:08:02.257Z,78.8
2016-11-03T05:09:02.260Z,78.89
2016-11-03T05:10:02.281Z,78.99
2016-11-03T05:11:02.298Z,78.8
2016-11-03T05:12:02.304Z,78.89
2016-11-03T05:13:02.318Z,78.99
2016-11-03T05:14:02.334Z,78.8
2016-11-03T05:15:02.353Z,78.8
2016-11-03T05:16:02.366Z,79.27
2016-11-03T05:17:02.368Z,79.36
2016-11-03T05:18:02.380Z,78.89
2016-11-03T05:19:02.394Z,79.36
2016-11-03T05:20:02.462Z,79.74
2016-11-03T05:21:02.435Z,79.55
2016-11-03T05:22:02.441Z,79.65
2016-11-03T05:23:02.786Z,79.27
2016-11-03T05:24:02.469Z,79.36
2016-11-03T05:25:02.480Z,79.36
2016-11-03T05:26:02.493Z,79.74
2016-11-03T05:27:02.508Z,79.55
2016-11-03T05:28:02.516Z,79.65
2016-11-03T05:29:02.541Z,79.46
2016-11-03T05:30:02.551Z,79.55
2016-11-03T05:31:02.568Z,79.17
2016-11-03T05:32:02.597Z,79.65
2016-11-03T05:33:02.588Z,79.55
2016-11-03T05:34:02.607Z,79.36
2016-11-03T05:35:02.622Z,79.36
2016-11-03T05:36:02.626Z,79.46
2016-11-03T05:37:02.644Z,79.36
2016-11-03T05:38:02.676Z,79.65
2016-11-03T05:39:02.672Z,79.17
2016-11-03T05:40:02.686Z,79.74
2016-11-03T05:41:02.701Z,79.74
2016-11-03T05:42:02.708Z,79.55
2016-11-03T05:43:02.727Z,79.65
2016-11-03T05:44:02.741Z,79.36
2016-11-03T05:45:02.748Z,79.65
2016-11-03T05:46:02.768Z,79.65
2016-11-03T05:47:02.782Z,79.55
2016-11-03T05:48:02.790Z,79.27
2016-11-03T05:49:02.804Z,79.27
2016-11-03T05:50:02.822Z,79.17
2016-11-03T05:51:02.829Z,79.36
2016-11-03T05:52:02.848Z,79.46
2016-11-03T05:53:02.851Z,79.55
2016-11-03T05:54:02.878Z,79.17
2016-11-03T05:55:02.880Z,79.55
2016-11-03T05:56:03.249Z,79.65
2016-11-03T05:57:02.907Z,79.55
2016-11-03T05:58:02.932Z,79.46
2016-11-03T05:59:02.935Z,79.36
2016-11-03T06:00:02.968Z,79.46
2016-11-03T06:01:02.957Z,79.55
2016-11-03T06:02:02.995Z,79.46
2016-11-03T06:03:02.983Z,79.27
2016-11-03T06:04:02.999Z,79.55
2016-11-03T06:05:03.014Z,79.55
2016-11-03T06:06:03.035Z,79.27
2016-11-03T06:07:03.047Z,79.55
2016-11-03T06:08:03.373Z,79.55
2016-11-03T06:09:03.064Z,79.55
2016-11-03T06:10:03.127Z,79.46
2016-11-03T06:11:03.093Z,79.94
2016-11-03T06:12:03.115Z,80.03
2016-11-03T06:13:03.120Z,79.94
2016-11-03T06:14:03.162Z,79.94
2016-11-03T06:15:03.158Z,79.36
2016-11-03T06:16:03.208Z,79.46
2016-11-03T06:17:03.179Z,79.55
2016-11-03T06:18:03.192Z,79.55
2016-11-03T06:19:03.202Z,79.46
2016-11-03T06:20:03.359Z,79.36
2016-11-03T06:21:03.229Z,79.27
2016-11-03T06:22:03.250Z,79.84
2016-11-03T06:23:03.260Z,79.94
2016-11-03T06:24:03.277Z,79.65
2016-11-03T06:25:03.289Z,79.36
2016-11-03T06:26:03.301Z,79.55
2016-11-03T06:27:03.311Z,79.55
2016-11-03T06:28:03.328Z,79.55
2016-11-03T06:29:03.448Z,79.74
2016-11-03T06:30:03.362Z,79.74
2016-11-03T06:31:03.450Z,79.36
2016-11-03T06:32:03.624Z,79.36
2016-11-03T06:33:03.477Z,79.65
2016-11-03T06:34:03.483Z,79.94
2016-11-03T06:35:03.611Z,80.03
2016-11-03T06:36:03.517Z,79.94
2016-11-03T06:37:03.529Z,79.46
2016-11-03T06:38:03.459Z,79.84
2016-11-03T06:39:03.615Z,79.84
2016-11-03T06:40:03.821Z,79.74
2016-11-03T06:41:03.618Z,79.36
2016-11-03T06:42:03.625Z,79.55
2016-11-03T06:43:03.631Z,79.55
2016-11-03T06:44:03.643Z,79.46
2016-11-03T06:45:03.668Z,79.46
2016-11-03T06:46:03.684Z,80.03
2016-11-03T06:47:03.577Z,80.03
2016-11-03T06:48:03.926Z,80.03
2016-11-03T06:49:03.596Z,79.46
2016-11-03T06:50:03.609Z,80.03
2016-11-03T06:51:03.631Z,79.84
2016-11-03T06:52:03.649Z,79.94
2016-11-03T06:53:03.650Z,79.94
2016-11-03T06:54:03.681Z,79.84
2016-11-03T06:55:03.679Z,79.94
2016-11-03T06:56:03.689Z,80.13
2016-11-03T06:57:03.702Z,79.27
2016-11-03T06:58:03.720Z,79.27
2016-11-03T06:59:03.745Z,79.46
2016-11-03T07:00:03.750Z,79.55
2016-11-03T07:01:03.762Z,79.27
2016-11-03T07:02:03.773Z,79.46
2016-11-03T07:03:03.784Z,79.55
2016-11-03T07:04:03.804Z,79.55
2016-11-03T07:05:03.818Z,79.55
2016-11-03T07:06:03.832Z,79.46
2016-11-03T07:07:03.956Z,79.84
2016-11-03T07:08:03.851Z,80.03
2016-11-03T07:09:03.864Z,79.55
2016-11-03T07:10:04.189Z,79.94
2016-11-03T07:11:03.892Z,80.13
2016-11-03T07:12:03.901Z,80.22
2016-11-03T07:13:03.924Z,79.65
2016-11-03T07:14:03.930Z,79.65
2016-11-03T07:15:03.942Z,79.65
2016-11-03T07:16:03.964Z,80.03
2016-11-03T07:17:04.279Z,79.65
2016-11-03T07:18:03.983Z,80.13
2016-11-03T07:19:04.001Z,79.94
2016-11-03T07:20:04.008Z,79.84
2016-11-03T07:21:04.029Z,79.84
2016-11-03T07:22:04.039Z,79.74
2016-11-03T07:23:04.053Z,79.74
2016-11-03T07:24:04.063Z,79.46
2016-11-03T07:25:04.080Z,79.55
2016-11-03T07:26:04.092Z,79.65
2016-11-03T07:27:04.104Z,79.74
2016-11-03T07:28:04.657Z,79.84
2016-11-03T07:29:04.129Z,80.13
2016-11-03T07:30:04.191Z,79.84
2016-11-03T07:31:04.156Z,79.55
2016-11-03T07:32:04.168Z,80.13
2016-11-03T07:33:04.492Z,80.03
2016-11-03T07:34:04.190Z,79.84
2016-11-03T07:35:04.208Z,79.84
2016-11-03T07:36:04.215Z,79.84
2016-11-03T07:37:04.236Z,79.84
2016-11-03T07:38:04.249Z,79.84
2016-11-03T07:39:04.261Z,79.84
2016-11-03T07:40:04.276Z,79.94
2016-11-03T07:41:04.284Z,79.74
2016-11-03T07:42:04.296Z,79.74
2016-11-03T07:43:04.316Z,79.84
2016-11-03T07:44:04.325Z,79.65
2016-11-03T07:45:04.342Z,79.46
2016-11-03T07:46:04.438Z,80.22
2016-11-03T07:47:04.805Z,79.55
2016-11-03T07:48:04.467Z,80.26
2016-11-03T07:49:04.704Z,79.69
2016-11-03T07:50:04.406Z,79.79
2016-11-03T07:51:04.421Z,79.79
2016-11-03T07:52:04.431Z,79.69
2016-11-03T07:53:04.445Z,80.16
2016-11-03T07:54:04.459Z,79.6
2016-11-03T07:55:04.470Z,79.88
2016-11-03T07:56:04.664Z,79.69
2016-11-03T07:57:04.683Z,79.6
2016-11-03T07:58:04.508Z,79.6
2016-11-03T07:59:04.523Z,79.79
2016-11-03T08:00:04.535Z,79.97
2016-11-03T08:01:04.542Z,80.16
2016-11-03T08:02:04.562Z,80.07
2016-11-03T08:03:04.574Z,79.88
2016-11-03T08:04:04.580Z,80.07
2016-11-03T08:05:04.607Z,79.31
2016-11-03T08:06:04.607Z,79.41
2016-11-03T08:07:04.620Z,79.6
2016-11-03T08:08:04.630Z,79.6
2016-11-03T08:09:04.660Z,79.41
2016-11-03T08:10:04.972Z,79.41
2016-11-03T08:11:04.682Z,79.31
2016-11-03T08:12:04.694Z,79.5
2016-11-03T08:13:04.701Z,79.31
2016-11-03T08:14:04.712Z,79.22
2016-11-03T08:15:04.733Z,79.12
2016-11-03T08:16:04.743Z,78.93
2016-11-03T08:17:04.759Z,78.93
2016-11-03T08:18:04.774Z,79.63
2016-11-03T08:19:04.786Z,78.97
2016-11-03T08:20:04.797Z,79.73
2016-11-03T08:21:04.813Z,79.25
2016-11-03T08:22:04.822Z,78.69
2016-11-03T08:23:04.842Z,78.97
2016-11-03T08:24:04.845Z,79.25
2016-11-03T08:25:04.872Z,78.97
2016-11-03T08:26:04.873Z,78.88
2016-11-03T08:27:04.892Z,78.5
2016-11-03T08:28:04.912Z,78.4
2016-11-03T08:29:04.915Z,78.4
2016-11-03T08:30:04.927Z,78.4
2016-11-03T08:31:04.949Z,78.78
2016-11-03T08:32:04.954Z,78.3
2016-11-03T08:33:04.972Z,78.3
2016-11-03T08:34:04.984Z,78.4
2016-11-03T08:35:04.994Z,78.3
2016-11-03T08:36:05.013Z,78.4
2016-11-03T08:37:05.022Z,78.3
2016-11-03T08:38:05.042Z,77.83
2016-11-03T08:39:05.055Z,77.83
2016-11-03T08:40:05.068Z,77.83
2016-11-03T08:41:05.083Z,78.11
2016-11-03T08:42:05.100Z,77.26
2016-11-03T08:43:05.113Z,77.07
2016-11-03T08:44:05.115Z,76.97
2016-11-03T08:45:05.286Z,76.97
2016-11-03T08:46:05.152Z,77.17
2016-11-03T08:47:05.163Z,76.97
2016-11-03T08:48:05.208Z,77.07
2016-11-03T08:49:05.191Z,76.78
2016-11-03T08:50:05.212Z,76.97
2016-11-03T08:51:05.211Z,76.69
2016-11-03T08:52:05.237Z,76.88
2016-11-03T08:53:05.247Z,76.5
2016-11-03T08:54:05.254Z,76.4
2016-11-03T08:55:05.273Z,76.31
2016-11-03T08:56:05.284Z,76.12
2016-11-03T08:57:05.302Z,76.5
2016-11-03T08:58:05.310Z,76.5
2016-11-03T08:59:05.330Z,76.4
2016-11-03T09:00:05.345Z,76.4
2016-11-03T09:01:05.351Z,76.88
2016-11-03T09:02:05.371Z,76.31
2016-11-03T09:03:05.392Z,76.5
2016-11-03T09:04:05.400Z,76.59
2016-11-03T09:05:05.410Z,76.78
2016-11-03T09:06:05.424Z,76.69
2016-11-03T09:07:05.439Z,76.31
2016-11-03T09:08:05.452Z,75.93
2016-11-03T09:09:05.460Z,75.93
2016-11-03T09:10:05.479Z,76.31
2016-11-03T09:11:05.492Z,76.69
2016-11-03T09:12:05.507Z,76.78
2016-11-03T09:13:05.525Z,77.07
2016-11-03T09:14:05.541Z,76.31
2016-11-03T09:15:05.550Z,76.78
2016-11-03T09:16:05.556Z,76.4
2016-11-03T09:17:05.575Z,76.69
2016-11-03T09:18:05.597Z,76.31
2016-11-03T09:19:05.596Z,76.21
2016-11-03T09:20:05.619Z,76.21
2016-11-03T09:21:05.630Z,75.68
2016-11-03T09:22:05.643Z,75.93
2016-11-03T09:23:05.658Z,75.45
2016-11-03T09:24:05.675Z,76.06
2016-11-03T09:25:05.687Z,75.96
2016-11-03T09:26:05.708Z,76.35
2016-11-03T09:27:05.712Z,76.35
2016-11-03T09:28:05.723Z,76.44
2016-11-03T09:29:05.746Z,75.96
2016-11-03T09:30:05.812Z,76.35
2016-11-03T09:31:05.767Z,76.35
2016-11-03T09:32:05.779Z,75.87
2016-11-03T09:33:05.797Z,75.68
2016-11-03T09:34:05.809Z,75.4
2016-11-03T09:35:05.821Z,75.21
2016-11-03T09:36:05.842Z,75.96
2016-11-03T09:37:05.848Z,75.78
2016-11-03T09:38:05.865Z,75.68
2016-11-03T09:39:05.874Z,75.59
2016-11-03T09:40:05.996Z,75.96
2016-11-03T09:41:05.907Z,75.68
2016-11-03T09:42:05.918Z,75.78
2016-11-03T09:43:05.929Z,75.3
2016-11-03T09:44:05.945Z,75.78
2016-11-03T09:45:05.961Z,75.78
2016-11-03T09:46:05.975Z,75.11
2016-11-03T09:47:05.998Z,75.78
2016-11-03T09:48:06.006Z,75.87
2016-11-03T09:49:06.014Z,75.81
2016-11-03T09:50:06.029Z,75.15
2016-11-03T09:51:06.050Z,75.24
2016-11-03T09:52:06.070Z,75.62
2016-11-03T09:53:06.073Z,75.24
2016-11-03T09:54:06.095Z,75.53
2016-11-03T09:55:06.109Z,74.77
2016-11-03T09:56:06.112Z,74.77
2016-11-03T09:57:06.134Z,74.67
2016-11-03T09:58:06.151Z,74.29
2016-11-03T09:59:06.166Z,74.1
2016-11-03T10:00:06.172Z,74.01
2016-11-03T10:01:06.188Z,74.2
2016-11-03T10:02:06.201Z,74.67
2016-11-03T10:03:06.217Z,74.29
2016-11-03T10:04:06.227Z,74.58
2016-11-03T10:05:06.248Z,74.77
2016-11-03T10:06:06.262Z,74.67
2016-11-03T10:07:06.269Z,74.67
2016-11-03T10:08:06.290Z,74.58
2016-11-03T10:09:06.304Z,74.2
2016-11-03T10:10:06.324Z,74.2
2016-11-03T10:11:06.336Z,74.29
2016-11-03T10:12:06.352Z,74.01
2016-11-03T10:13:06.363Z,74.14
2016-11-03T10:14:06.376Z,74.24
2016-11-03T10:15:06.387Z,74.04
2016-11-03T10:16:06.401Z,74.14
2016-11-03T10:17:06.421Z,74.14
2016-11-03T10:18:06.445Z,73.85
2016-11-03T10:19:06.448Z,73.76
2016-11-03T10:20:06.459Z,74.04
2016-11-03T10:21:06.480Z,73.66
2016-11-03T10:22:06.494Z,73.57
2016-11-03T10:23:06.507Z,74.24
2016-11-03T10:24:06.518Z,74.04
2016-11-03T10:25:06.538Z,73.66
2016-11-03T10:26:06.558Z,73.66
2016-11-03T10:27:06.567Z,73.38
2016-11-03T10:28:06.584Z,73.19
2016-11-03T10:29:06.592Z,73.66
2016-11-03T10:30:06.621Z,73
2016-11-03T10:31:06.628Z,72.81
2016-11-03T10:32:06.631Z,73
2016-11-03T10:33:06.653Z,72.71
2016-11-03T10:34:06.661Z,73
2016-11-03T10:35:06.679Z,72.42
2016-11-03T10:36:06.693Z,72.33
2016-11-03T10:37:06.709Z,72.62
2016-11-03T10:38:06.727Z,72.62
2016-11-03T10:39:06.743Z,71.89
2016-11-03T10:40:06.762Z,72.27
2016-11-03T10:41:06.772Z,72.37
2016-11-03T10:42:06.782Z,72.08
2016-11-03T10:43:06.804Z,71.67
2016-11-03T10:44:06.818Z,71.61
2016-11-03T10:45:06.836Z,71.51
2016-11-03T10:46:06.841Z,71.61
2016-11-03T10:47:06.854Z,71.42
2016-11-03T10:48:06.875Z,70.94
2016-11-03T10:49:06.888Z,70.94
2016-11-03T10:50:06.901Z,71.22
2016-11-03T10:51:06.914Z,71.22
2016-11-03T10:52:06.933Z,71.13
2016-11-03T10:53:06.946Z,71.13
2016-11-03T10:54:06.965Z,71.22
2016-11-03T10:55:06.975Z,71.22
2016-11-03T10:56:06.988Z,71.32
2016-11-03T10:57:07.007Z,71.32
2016-11-03T10:58:07.027Z,70.94
2016-11-03T10:59:07.044Z,70.65
2016-11-03T11:00:07.056Z,70.75
2016-11-03T11:01:07.064Z,70.47
2016-11-03T11:02:07.079Z,70.65
2016-11-03T11:03:07.102Z,70.56
2016-11-03T11:04:07.115Z,70.75
2016-11-03T11:05:07.177Z,70.56
2016-11-03T11:06:07.151Z,70.56
2016-11-03T11:07:07.168Z,70.75
2016-11-03T11:08:07.175Z,69.99
2016-11-03T11:09:07.193Z,70.08
2016-11-03T11:10:07.216Z,69.99
2016-11-03T11:11:07.223Z,69.51
2016-11-03T11:12:07.242Z,69.51
2016-11-03T11:13:07.295Z,69.32
2016-11-03T11:14:07.276Z,69.51
2016-11-03T11:15:07.280Z,69.6
2016-11-03T11:16:07.300Z,69.13
2016-11-03T11:17:07.321Z,69.93
2016-11-03T11:18:07.330Z,69.74
2016-11-03T11:19:07.373Z,69.64
2016-11-03T11:20:07.365Z,69.35
2016-11-03T11:21:07.371Z,70.31
2016-11-03T11:22:07.386Z,70.21
2016-11-03T11:23:07.402Z,69.6
2016-11-03T11:24:07.417Z,69.32
2016-11-03T11:25:07.440Z,69.32
2016-11-03T11:26:07.451Z,69.42
2016-11-03T11:27:07.472Z,69.17
2016-11-03T11:28:07.474Z,69.07
2016-11-03T11:29:07.499Z,69.54
2016-11-03T11:30:07.516Z,69.74
2016-11-03T11:31:07.592Z,70.12
2016-11-03T11:32:07.543Z,69.93
2016-11-03T11:33:07.558Z,70.5
2016-11-03T11:34:07.567Z,70.59
2016-11-03T11:35:07.598Z,70.12
2016-11-03T11:36:07.604Z,69.26
2016-11-03T11:37:07.620Z,69.35
2016-11-03T11:38:07.631Z,69.35
2016-11-03T11:39:07.646Z,69.35
2016-11-03T11:40:07.662Z,69.45
2016-11-03T11:41:07.678Z,69.26
2016-11-03T11:42:07.694Z,69.26
2016-11-03T11:43:07.745Z,69.45
2016-11-03T11:44:07.736Z,69.35
2016-11-03T11:45:07.738Z,69.17
2016-11-03T11:46:07.766Z,69.45
2016-11-03T11:47:07.772Z,69.26
2016-11-03T11:48:07.789Z,69.26
2016-11-03T11:49:07.803Z,68.69
2016-11-03T11:50:07.817Z,68.59
2016-11-03T11:51:07.834Z,68.5
2016-11-03T11:52:07.847Z,68.59
2016-11-03T11:53:07.858Z,68.69
2016-11-03T11:54:07.877Z,68.5
2016-11-03T11:55:07.929Z,69.45
2016-11-03T11:56:07.906Z,68.4
2016-11-03T11:57:07.930Z,68.69
2016-11-03T11:58:07.940Z,69.07
2016-11-03T11:59:07.956Z,68.59
2016-11-03T12:00:07.967Z,68.69
2016-11-03T12:01:07.998Z,68.5
2016-11-03T12:02:08.005Z,68.59
2016-11-03T12:03:08.018Z,68.4
2016-11-03T12:04:08.042Z,68.98
2016-11-03T12:05:08.105Z,68.98
2016-11-03T12:06:08.060Z,68.5
2016-11-03T12:07:08.090Z,69.07
2016-11-03T12:08:08.093Z,69.26
2016-11-03T12:09:08.113Z,68.5
2016-11-03T12:10:08.451Z,68.59
2016-11-03T12:11:08.145Z,68.88
2016-11-03T12:12:08.169Z,68.98
2016-11-03T12:13:08.178Z,68.88
2016-11-03T12:14:08.187Z,68.88
2016-11-03T12:15:08.205Z,68.69
2016-11-03T12:16:08.226Z,68.5
2016-11-03T12:17:08.235Z,69.35
2016-11-03T12:18:08.263Z,69.64
2016-11-03T12:19:08.266Z,68.78
2016-11-03T12:20:08.297Z,68.21
2016-11-03T12:21:08.309Z,68.5
2016-11-03T12:22:08.323Z,68.69
2016-11-03T12:23:08.332Z,68.5
2016-11-03T12:24:08.352Z,68.4
2016-11-03T12:25:08.420Z,68.69
2016-11-03T12:26:08.401Z,68.59
2016-11-03T12:27:08.405Z,68.4
2016-11-03T12:28:08.424Z,68.59
2016-11-03T12:29:08.426Z,69.07
2016-11-03T12:30:08.854Z,68.69
2016-11-03T12:31:08.465Z,68.59
2016-11-03T12:32:08.484Z,68.4
2016-11-03T12:33:08.497Z,68.59
2016-11-03T12:34:08.512Z,68.72
2016-11-03T12:35:08.528Z,68.21
2016-11-03T12:36:08.542Z,68.59
2016-11-03T12:37:08.562Z,69.26
2016-11-03T12:38:08.898Z,70.06
2016-11-03T12:39:08.595Z,69.87
2016-11-03T12:40:08.929Z,69.2
2016-11-03T12:41:08.618Z,69.87
2016-11-03T12:42:08.640Z,69.39
2016-11-03T12:43:08.655Z,69.87
2016-11-03T12:44:08.668Z,69.1
2016-11-03T12:45:08.680Z,69.39
2016-11-03T12:46:08.715Z,68.63
2016-11-03T12:47:08.714Z,69.01
2016-11-03T12:48:08.787Z,68.63
2016-11-03T12:49:08.745Z,68.63
2016-11-03T12:50:08.773Z,67.77
2016-11-03T12:51:08.780Z,67.58
2016-11-03T12:52:08.805Z,67.68
2016-11-03T12:53:08.815Z,67.68
2016-11-03T12:54:08.829Z,67
2016-11-03T12:55:08.853Z,66.82
2016-11-03T12:56:08.881Z,66.63
2016-11-03T12:57:08.885Z,66.72